createdAt,value
2018-06-03T00:00:24.419Z,63.60
2018-06-03T00:01:24.397Z,62.50
2018-06-03T00:02:24.373Z,64.00
2018-06-03T00:03:24.350Z,65.70
2018-06-03T00:04:24.328Z,65.60
2018-06-03T00:05:24.304Z,65.20
2018-06-03T00:06:24.281Z,64.20
2018-06-03T00:07:24.259Z,66.80
2018-06-03T00:08:24.238Z,66.90
2018-06-03T00:09:24.214Z,65.80
2018-06-03T00:10:24.189Z,66.80
2018-06-03T00:11:24.165Z,69.10
2018-06-03T00:12:24.143Z,68.00
2018-06-03T00:13:24.120Z,71.00
2018-06-03T00:14:24.097Z,73.00
2018-06-03T00:15:24.074Z,71.40
2018-06-03T00:16:24.051Z,70.30
2018-06-03T00:17:24.027Z,71.80
2018-06-03T00:18:24.007Z,70.90
2018-06-03T00:19:23.983Z,74.20
2018-06-03T00:20:23.968Z,75.70
2018-06-03T00:21:23.937Z,73.80
2018-06-03T00:22:23.921Z,74.50
2018-06-03T00:23:23.888Z,76.70
2018-06-03T00:24:24.069Z,76.00
2018-06-03T00:25:23.844Z,77.00
2018-06-03T00:26:23.822Z,74.50
2018-06-03T00:27:23.799Z,73.80
2018-06-03T00:28:23.774Z,75.40
2018-06-03T00:29:23.758Z,77.40
2018-06-03T00:30:23.728Z,80.80
2018-06-03T00:31:23.707Z,79.20
2018-06-03T00:32:23.684Z,77.10
2018-06-03T00:33:23.660Z,77.80
2018-06-03T00:34:23.636Z,80.20
2018-06-03T00:35:23.613Z,78.30
2018-06-03T00:36:23.591Z,78.80
2018-06-03T00:37:23.569Z,80.10
2018-06-03T00:38:23.544Z,76.80
2018-06-03T00:39:23.520Z,78.50
2018-06-03T00:40:23.537Z,79.00
2018-06-03T00:41:23.475Z,76.70
2018-06-03T00:42:23.453Z,73.80
2018-06-03T00:43:23.430Z,76.10
2018-06-03T00:44:23.407Z,76.30
2018-06-03T00:45:23.383Z,78.10
2018-06-03T00:46:23.368Z,77.40
2018-06-03T00:47:23.337Z,77.50
2018-06-03T00:48:23.314Z,78.10
2018-06-03T00:49:23.292Z,80.60
2018-06-03T00:50:23.266Z,77.50
2018-06-03T00:51:23.247Z,73.60
2018-06-03T00:52:23.226Z,70.80
2018-06-03T00:53:23.200Z,73.50
2018-06-03T00:54:23.177Z,73.60
2018-06-03T00:55:23.152Z,74.70
2018-06-03T00:56:23.130Z,78.10
2018-06-03T00:57:23.113Z,78.00
2018-06-03T00:58:23.085Z,72.70
2018-06-03T00:59:23.061Z,76.00
2018-06-03T01:00:23.037Z,75.80
2018-06-03T01:01:23.016Z,73.10
2018-06-03T01:02:22.996Z,73.80
2018-06-03T01:03:22.969Z,70.10
2018-06-03T01:04:22.946Z,70.20
2018-06-03T01:05:22.924Z,74.60
2018-06-03T01:06:22.903Z,68.70
2018-06-03T01:07:22.877Z,70.40
2018-06-03T01:08:22.854Z,70.70
2018-06-03T01:09:22.832Z,69.80
2018-06-03T01:10:22.809Z,68.30
2018-06-03T01:11:22.783Z,65.70
2018-06-03T01:12:22.762Z,67.40
2018-06-03T01:13:22.740Z,65.90
2018-06-03T01:14:22.718Z,68.50
2018-06-03T01:15:22.700Z,64.10
2018-06-03T01:16:22.671Z,65.00
2018-06-03T01:17:22.650Z,66.00
2018-06-03T01:18:22.624Z,65.60
2018-06-03T01:19:22.601Z,63.40
2018-06-03T01:20:22.579Z,62.80
2018-06-03T01:21:22.559Z,62.70
2018-06-03T01:22:22.532Z,63.20
2018-06-03T01:23:22.512Z,61.10
2018-06-03T01:24:22.488Z,60.30
2018-06-03T01:25:22.466Z,60.70
2018-06-03T01:26:22.440Z,63.30
2018-06-03T01:27:22.417Z,62.10
2018-06-03T01:28:22.395Z,63.50
2018-06-03T01:29:22.378Z,61.40
2018-06-03T01:30:22.348Z,62.10
2018-06-03T01:31:22.330Z,63.20
2018-06-03T01:32:22.309Z,62.70
2018-06-03T01:33:22.304Z,64.00
2018-06-03T01:34:22.406Z,64.50
2018-06-03T01:35:22.234Z,61.80
2018-06-03T01:36:22.210Z,64.50
2018-06-03T01:37:22.189Z,63.90
2018-06-03T01:38:22.170Z,66.10
2018-06-03T01:39:22.141Z,67.20
2018-06-03T01:40:22.119Z,68.30
2018-06-03T01:41:22.096Z,68.80
2018-06-03T01:42:22.075Z,71.30
2018-06-03T01:43:22.051Z,70.50
2018-06-03T01:44:22.027Z,74.70
2018-06-03T01:45:22.009Z,69.90
2018-06-03T01:46:21.985Z,74.70
2018-06-03T01:47:21.957Z,73.70
2018-06-03T01:48:21.935Z,79.60
2018-06-03T01:49:21.915Z,79.50
2018-06-03T01:50:21.938Z,80.40
2018-06-03T01:51:21.875Z,78.00
2018-06-03T01:52:21.842Z,81.20
2018-06-03T01:53:21.820Z,79.10
2018-06-03T01:54:21.796Z,80.40
2018-06-03T01:55:21.773Z,80.90
2018-06-03T01:56:21.750Z,83.50
2018-06-03T01:57:21.728Z,81.20
2018-06-03T01:58:21.702Z,83.80
2018-06-03T01:59:21.680Z,85.10
2018-06-03T02:00:21.661Z,81.50
2018-06-03T02:01:21.634Z,83.80
2018-06-03T02:02:21.614Z,83.10
2018-06-03T02:03:21.587Z,83.90
2018-06-03T02:04:21.564Z,78.00
2018-06-03T02:05:21.749Z,82.80
2018-06-03T02:06:21.517Z,79.40
2018-06-03T02:07:21.496Z,80.10
2018-06-03T02:08:21.472Z,81.60
2018-06-03T02:09:21.456Z,85.90
2018-06-03T02:10:21.424Z,82.00
2018-06-03T02:11:21.401Z,78.90
2018-06-03T02:12:21.580Z,81.00
2018-06-03T02:13:21.355Z,81.70
2018-06-03T02:14:21.482Z,82.00
2018-06-03T02:15:21.308Z,83.40
2018-06-03T02:16:21.284Z,80.40
2018-06-03T02:17:21.262Z,82.30
2018-06-03T02:18:21.238Z,77.70
2018-06-03T02:19:21.215Z,80.00
2018-06-03T02:20:21.195Z,84.00
2018-06-03T02:21:21.175Z,80.50
2018-06-03T02:22:21.145Z,80.90
2018-06-03T02:23:21.121Z,80.60
2018-06-03T02:24:21.099Z,77.60
2018-06-03T02:25:21.077Z,77.90
2018-06-03T02:26:21.051Z,78.60
2018-06-03T02:27:21.030Z,78.60
2018-06-03T02:28:21.005Z,79.90
2018-06-03T02:29:20.982Z,78.60
2018-06-03T02:30:20.963Z,80.70
2018-06-03T02:31:20.935Z,80.10
2018-06-03T02:32:20.913Z,82.30
2018-06-03T02:33:20.889Z,80.10
2018-06-03T02:34:20.865Z,80.50
2018-06-03T02:35:20.845Z,80.90
2018-06-03T02:36:20.822Z,80.30
2018-06-03T02:37:20.797Z,81.50
2018-06-03T02:38:20.773Z,82.70
2018-06-03T02:39:20.751Z,81.90
2018-06-03T02:40:20.729Z,82.20
2018-06-03T02:41:20.704Z,82.60
2018-06-03T02:42:20.685Z,83.80
2018-06-03T02:43:20.657Z,81.10
2018-06-03T02:44:20.634Z,81.20
2018-06-03T02:45:20.612Z,81.70
2018-06-03T02:46:20.588Z,81.30
2018-06-03T02:47:20.569Z,83.10
2018-06-03T02:48:20.542Z,81.00
2018-06-03T02:49:20.518Z,79.90
2018-06-03T02:50:20.645Z,79.80
2018-06-03T02:51:20.472Z,80.50
2018-06-03T02:52:20.448Z,82.10
2018-06-03T02:53:20.431Z,83.20
2018-06-03T02:54:20.402Z,84.70
2018-06-03T02:55:20.380Z,88.00
2018-06-03T02:56:20.357Z,85.10
2018-06-03T02:57:20.334Z,84.40
2018-06-03T02:58:20.310Z,86.60
2018-06-03T02:59:20.287Z,86.80
2018-06-03T03:00:20.266Z,85.00
2018-06-03T03:01:20.242Z,84.40
2018-06-03T03:02:20.218Z,85.10
2018-06-03T03:03:20.195Z,81.90
2018-06-03T03:04:20.172Z,81.70
2018-06-03T03:05:20.150Z,82.80
2018-06-03T03:06:20.125Z,81.90
2018-06-03T03:07:20.103Z,72.60
2018-06-03T03:08:20.079Z,76.80
2018-06-03T03:09:20.061Z,76.80
2018-06-03T03:10:20.037Z,75.80
2018-06-03T03:11:20.012Z,74.30
2018-06-03T03:12:19.989Z,75.30
2018-06-03T03:13:19.964Z,75.00
2018-06-03T03:14:19.941Z,76.10
2018-06-03T03:15:19.917Z,78.70
2018-06-03T03:16:19.902Z,71.70
2018-06-03T03:17:19.872Z,72.90
2018-06-03T03:18:19.848Z,74.60
2018-06-03T03:19:19.830Z,72.80
2018-06-03T03:20:19.805Z,71.30
2018-06-03T03:21:19.779Z,74.40
2018-06-03T03:22:19.758Z,71.10
2018-06-03T03:23:19.733Z,70.80
2018-06-03T03:24:19.710Z,72.10
2018-06-03T03:25:19.691Z,67.10
2018-06-03T03:26:19.665Z,69.60
2018-06-03T03:27:19.642Z,69.60
2018-06-03T03:28:19.625Z,72.70
2018-06-03T03:29:19.599Z,71.00
2018-06-03T03:30:19.572Z,69.40
2018-06-03T03:31:19.549Z,69.50
2018-06-03T03:32:19.526Z,70.00
2018-06-03T03:33:19.504Z,67.80
2018-06-03T03:34:19.479Z,68.90
2018-06-03T03:35:19.458Z,65.70
2018-06-03T03:36:19.435Z,70.30
2018-06-03T03:37:19.424Z,71.20
2018-06-03T03:38:19.388Z,76.90
2018-06-03T03:39:19.364Z,81.70
2018-06-03T03:40:19.345Z,81.10
2018-06-03T03:41:19.323Z,82.30
2018-06-03T03:42:19.295Z,81.50
2018-06-03T03:43:19.272Z,83.00
2018-06-03T03:44:19.250Z,77.50
2018-06-03T03:45:19.227Z,77.40
2018-06-03T03:46:19.204Z,82.50
2018-06-03T03:47:19.180Z,77.70
2018-06-03T03:48:19.158Z,78.70
2018-06-03T03:49:19.285Z,78.00
2018-06-03T03:50:19.112Z,81.70
2018-06-03T03:51:19.089Z,76.20
2018-06-03T03:52:19.068Z,79.80
2018-06-03T03:53:19.047Z,77.50
2018-06-03T03:54:19.020Z,77.10
2018-06-03T03:55:18.996Z,77.20
2018-06-03T03:56:18.975Z,77.30
2018-06-03T03:57:18.952Z,77.90
2018-06-03T03:58:18.931Z,76.40
2018-06-03T03:59:18.906Z,78.00
2018-06-03T04:00:18.883Z,77.20
2018-06-03T04:01:18.873Z,76.90
2018-06-03T04:02:18.836Z,77.40
2018-06-03T04:03:18.813Z,77.40
2018-06-03T04:04:18.791Z,73.20
2018-06-03T04:05:18.774Z,76.60
2018-06-03T04:06:18.745Z,74.00
2018-06-03T04:07:18.722Z,76.30
2018-06-03T04:08:18.701Z,75.40
2018-06-03T04:09:18.678Z,74.20
2018-06-03T04:10:18.653Z,75.60
2018-06-03T04:11:18.631Z,74.30
2018-06-03T04:12:18.608Z,71.80
2018-06-03T04:13:18.607Z,70.70
2018-06-03T04:14:18.561Z,71.30
2018-06-03T04:15:18.539Z,71.80
2018-06-03T04:16:18.522Z,73.40
2018-06-03T04:17:18.495Z,74.60
2018-06-03T04:18:18.479Z,70.00
2018-06-03T04:19:18.447Z,70.20
2018-06-03T04:20:18.425Z,69.20
2018-06-03T04:21:18.404Z,68.30
2018-06-03T04:22:18.379Z,71.70
2018-06-03T04:23:18.358Z,73.60
2018-06-03T04:24:18.333Z,73.80
2018-06-03T04:25:18.312Z,71.30
2018-06-03T04:26:18.292Z,73.60
2018-06-03T04:27:18.265Z,71.90
2018-06-03T04:28:18.242Z,73.40
2018-06-03T04:29:18.223Z,70.20
2018-06-03T04:30:18.196Z,71.20
2018-06-03T04:31:18.327Z,74.00
2018-06-03T04:32:18.152Z,74.10
2018-06-03T04:33:18.130Z,70.20
2018-06-03T04:34:18.105Z,73.70
2018-06-03T04:35:18.083Z,73.50
2018-06-03T04:36:18.061Z,73.40
2018-06-03T04:37:18.038Z,70.40
2018-06-03T04:38:18.014Z,73.10
2018-06-03T04:39:17.992Z,73.10
2018-06-03T04:40:17.970Z,72.10
2018-06-03T04:41:18.166Z,73.10
2018-06-03T04:42:17.927Z,73.60
2018-06-03T04:43:17.902Z,73.70
2018-06-03T04:44:17.878Z,73.40
2018-06-03T04:45:17.860Z,70.80
2018-06-03T04:46:17.833Z,70.40
2018-06-03T04:47:17.810Z,71.20
2018-06-03T04:48:17.796Z,71.90
2018-06-03T04:49:17.765Z,66.80
2018-06-03T04:50:17.743Z,68.40
2018-06-03T04:51:17.722Z,68.10
2018-06-03T04:52:17.700Z,67.40
2018-06-03T04:53:17.678Z,69.90
2018-06-03T04:54:17.654Z,66.90
2018-06-03T04:55:17.634Z,64.50
2018-06-03T04:56:17.613Z,65.30
2018-06-03T04:57:17.585Z,64.00
2018-06-03T04:58:17.565Z,65.90
2018-06-03T04:59:17.541Z,65.20
2018-06-03T05:00:17.519Z,63.40
2018-06-03T05:01:17.496Z,62.60
2018-06-03T05:02:17.484Z,65.00
2018-06-03T05:03:17.451Z,62.80
2018-06-03T05:04:17.436Z,61.90
2018-06-03T05:05:17.407Z,63.00
2018-06-03T05:06:17.383Z,62.90
2018-06-03T05:07:17.363Z,62.70
2018-06-03T05:08:17.340Z,62.80
2018-06-03T05:09:17.316Z,62.60
2018-06-03T05:10:17.294Z,61.90
2018-06-03T05:11:17.271Z,62.60
2018-06-03T05:12:17.250Z,64.10
2018-06-03T05:13:17.230Z,63.40
2018-06-03T05:14:17.204Z,63.20
2018-06-03T05:15:17.198Z,61.90
2018-06-03T05:16:17.159Z,62.90
2018-06-03T05:17:17.138Z,61.10
2018-06-03T05:18:17.116Z,60.10
2018-06-03T05:19:17.105Z,61.10
2018-06-03T05:20:17.075Z,62.90
2018-06-03T05:21:17.050Z,62.20
2018-06-03T05:22:17.028Z,63.80
2018-06-03T05:23:17.004Z,63.90
2018-06-03T05:24:16.981Z,60.60
2018-06-03T05:25:16.960Z,62.20
2018-06-03T05:26:16.939Z,60.50
2018-06-03T05:27:16.920Z,60.00
2018-06-03T05:28:16.897Z,61.70
2018-06-03T05:29:16.873Z,58.80
2018-06-03T05:30:16.848Z,59.10
2018-06-03T05:31:16.827Z,59.00
2018-06-03T05:32:16.805Z,62.80
2018-06-03T05:33:16.784Z,65.70
2018-06-03T05:34:16.762Z,64.80
2018-06-03T05:35:16.939Z,62.00
2018-06-03T05:36:16.716Z,62.00
2018-06-03T05:37:16.694Z,57.00
2018-06-03T05:38:16.677Z,61.60
2018-06-03T05:39:16.648Z,60.90
2018-06-03T05:40:16.629Z,59.10
2018-06-03T05:41:16.606Z,61.10
2018-06-03T05:42:16.586Z,61.20
2018-06-03T05:43:16.565Z,58.50
2018-06-03T05:44:16.540Z,60.50
2018-06-03T05:45:16.520Z,58.40
2018-06-03T05:46:16.496Z,60.10
2018-06-03T05:47:16.474Z,60.70
2018-06-03T05:48:16.455Z,59.00
2018-06-03T05:49:16.437Z,57.80
2018-06-03T05:50:16.408Z,58.80
2018-06-03T05:51:16.388Z,56.20
2018-06-03T05:52:16.368Z,58.80
2018-06-03T05:53:16.345Z,58.50
2018-06-03T05:54:16.324Z,60.80
2018-06-03T05:55:16.302Z,59.10
2018-06-03T05:56:16.281Z,58.30
2018-06-03T05:57:16.260Z,58.40
2018-06-03T05:58:16.237Z,58.30
2018-06-03T05:59:17.419Z,56.20
2018-06-03T06:00:16.196Z,56.90
2018-06-03T06:01:16.179Z,58.70
2018-06-03T06:02:16.156Z,55.20
2018-06-03T06:03:16.132Z,51.70
2018-06-03T06:04:16.112Z,55.50
2018-06-03T06:05:16.094Z,55.10
2018-06-03T06:06:16.272Z,54.10
2018-06-03T06:07:16.251Z,53.10
2018-06-03T06:08:16.030Z,51.30
2018-06-03T06:09:16.015Z,52.20
2018-06-03T06:10:15.987Z,49.80
2018-06-03T06:11:58.327Z,50.10
2018-06-03T06:12:58.101Z,49.90
2018-06-03T06:13:58.081Z,47.40
2018-06-03T06:14:58.062Z,47.00
2018-06-03T06:15:58.243Z,45.00
2018-06-03T06:16:58.224Z,46.00
2018-06-03T06:17:58.003Z,45.10
2018-06-03T06:18:57.984Z,45.90
2018-06-03T06:19:57.966Z,42.90
2018-06-03T06:20:58.150Z,41.40
2018-06-03T06:21:57.938Z,44.60
2018-06-03T06:22:58.111Z,43.30
2018-06-03T06:23:57.894Z,43.50
2018-06-03T06:24:57.871Z,43.40
2018-06-03T06:25:57.857Z,42.50
2018-06-03T06:26:57.835Z,44.00
2018-06-03T06:27:57.820Z,42.40
2018-06-03T06:28:57.798Z,42.90
2018-06-03T06:29:57.780Z,43.80
2018-06-03T06:30:57.757Z,43.40
2018-06-03T06:31:57.740Z,43.20
2018-06-03T06:32:57.719Z,40.60
2018-06-03T06:33:57.700Z,45.20
2018-06-03T06:34:57.683Z,44.10
2018-06-03T06:35:58.020Z,42.80
2018-06-03T06:36:57.650Z,40.30
2018-06-03T06:37:57.627Z,40.90
2018-06-03T06:38:57.607Z,39.50
2018-06-03T06:39:57.590Z,42.00
2018-06-03T06:40:57.568Z,42.60
2018-06-03T06:41:57.549Z,42.80
2018-06-03T06:42:57.539Z,42.50
2018-06-03T06:43:57.516Z,41.70
2018-06-03T06:44:57.492Z,42.30
2018-06-03T06:45:57.473Z,42.00
2018-06-03T06:46:57.455Z,43.50
2018-06-03T06:47:57.436Z,39.20
2018-06-03T06:48:57.421Z,41.00
2018-06-03T06:49:57.400Z,40.40
2018-06-03T06:50:57.381Z,39.50
2018-06-03T06:51:57.363Z,38.60
2018-06-03T06:52:57.344Z,39.30
2018-06-03T06:53:57.326Z,39.20
2018-06-03T06:54:57.308Z,41.70
2018-06-03T06:55:57.289Z,40.60
2018-06-03T06:56:57.271Z,41.20
2018-06-03T06:57:57.253Z,40.50
2018-06-03T06:58:57.390Z,41.00
2018-06-03T06:59:57.217Z,41.10
2018-06-03T07:00:57.198Z,39.20
2018-06-03T07:01:57.181Z,40.10
2018-06-03T07:02:57.161Z,40.50
2018-06-03T07:03:57.143Z,41.10
2018-06-03T07:04:57.126Z,41.30
2018-06-03T07:05:57.104Z,41.60
2018-06-03T07:06:57.087Z,42.40
2018-06-03T07:07:57.067Z,41.10
2018-06-03T07:08:57.050Z,43.30
2018-06-03T07:09:57.029Z,43.80
2018-06-03T07:10:57.160Z,44.20
2018-06-03T07:11:56.990Z,45.10
2018-06-03T07:12:56.969Z,46.20
2018-06-03T07:13:56.951Z,43.90
2018-06-03T07:14:56.932Z,47.00
2018-06-03T07:15:56.913Z,46.20
2018-06-03T07:16:56.895Z,45.90
2018-06-03T07:17:56.873Z,45.30
2018-06-03T07:18:56.854Z,45.70
2018-06-03T07:19:56.835Z,47.50
2018-06-03T07:20:56.818Z,45.10
2018-06-03T07:21:56.799Z,44.10
2018-06-03T07:22:56.776Z,45.30
2018-06-03T07:23:56.756Z,45.00
2018-06-03T07:24:56.743Z,44.10
2018-06-03T07:25:56.718Z,44.30
2018-06-03T07:26:56.698Z,44.40
2018-06-03T07:27:56.679Z,43.90
2018-06-03T07:28:56.665Z,42.40
2018-06-03T07:29:56.639Z,40.50
2018-06-03T07:30:56.623Z,40.80
2018-06-03T07:31:56.602Z,39.90
2018-06-03T07:32:56.581Z,39.40
2018-06-03T07:33:56.564Z,39.00
2018-06-03T07:34:56.543Z,41.40
2018-06-03T07:35:56.538Z,40.20
2018-06-03T07:36:56.511Z,41.30
2018-06-03T07:37:56.488Z,41.10
2018-06-03T07:38:56.468Z,41.00
2018-06-03T07:39:56.451Z,36.70
2018-06-03T07:40:56.440Z,33.90
2018-06-03T07:41:56.412Z,36.30
2018-06-03T07:42:56.393Z,33.90
2018-06-03T07:43:56.377Z,34.50
2018-06-03T07:44:56.355Z,35.00
2018-06-03T07:45:56.337Z,34.80
2018-06-03T07:46:56.319Z,35.00
2018-06-03T07:47:56.306Z,34.40
2018-06-03T07:48:56.288Z,33.30
2018-06-03T07:49:56.266Z,34.10
2018-06-03T07:50:56.248Z,33.90
2018-06-03T07:51:56.434Z,33.90
2018-06-03T07:52:56.209Z,34.00
2018-06-03T07:53:56.392Z,32.60
2018-06-03T07:54:56.172Z,31.60
2018-06-03T07:55:56.153Z,30.60
2018-06-03T07:56:56.134Z,28.50
2018-06-03T07:57:56.117Z,29.80
2018-06-03T07:58:56.098Z,30.90
2018-06-03T07:59:56.081Z,28.90
2018-06-03T08:00:56.265Z,29.60
2018-06-03T08:01:56.051Z,30.40
2018-06-03T08:02:56.232Z,26.80
2018-06-03T08:03:56.016Z,29.80
2018-06-03T08:04:56.200Z,29.00
2018-06-03T08:06:38.343Z,29.80
2018-06-03T08:07:38.326Z,29.40
2018-06-03T08:08:38.205Z,30.00
2018-06-03T08:09:38.092Z,32.00
2018-06-03T08:10:38.074Z,31.00
2018-06-03T08:11:38.063Z,32.80
2018-06-03T08:12:38.045Z,29.90
2018-06-03T08:13:38.060Z,32.80
2018-06-03T08:14:38.013Z,32.80
2018-06-03T08:15:37.992Z,32.70
2018-06-03T08:16:37.975Z,34.50
2018-06-03T08:17:37.958Z,32.80
2018-06-03T08:18:37.940Z,31.10
2018-06-03T08:19:37.924Z,29.70
2018-06-03T08:20:37.909Z,31.80
2018-06-03T08:21:37.888Z,31.00
2018-06-03T08:22:37.873Z,31.10
2018-06-03T08:23:37.862Z,29.60
2018-06-03T08:24:38.044Z,29.50
2018-06-03T08:25:38.026Z,26.80
2018-06-03T08:26:37.812Z,27.80
2018-06-03T08:27:37.792Z,29.10
2018-06-03T08:28:37.777Z,27.20
2018-06-03T08:29:37.763Z,27.90
2018-06-03T08:30:37.756Z,27.00
2018-06-03T08:31:37.731Z,25.90
2018-06-03T08:32:37.716Z,26.40
2018-06-03T08:33:37.704Z,26.60
2018-06-03T08:34:37.684Z,27.30
2018-06-03T08:35:37.668Z,27.10
2018-06-03T08:36:37.659Z,26.00
2018-06-03T08:37:37.638Z,26.70
2018-06-03T08:38:37.623Z,26.90
2018-06-03T08:39:37.608Z,28.10
2018-06-03T08:40:37.597Z,29.50
2018-06-03T08:41:37.576Z,29.20
2018-06-03T08:42:37.560Z,30.50
2018-06-03T08:43:37.543Z,30.00
2018-06-03T08:44:37.527Z,30.70
2018-06-03T08:45:37.511Z,31.50
2018-06-03T08:46:37.496Z,30.80
2018-06-03T08:47:37.479Z,29.50
2018-06-03T08:48:37.470Z,30.70
2018-06-03T08:49:37.447Z,31.20
2018-06-03T08:50:37.430Z,30.40
2018-06-03T08:51:37.414Z,31.90
2018-06-03T08:52:37.399Z,32.60
2018-06-03T08:53:37.381Z,31.90
2018-06-03T08:54:37.365Z,30.30
2018-06-03T08:55:37.352Z,32.60
2018-06-03T08:56:37.332Z,30.40
2018-06-03T08:57:37.320Z,33.40
2018-06-03T08:58:37.303Z,31.90
2018-06-03T08:59:37.284Z,32.70
2018-06-03T09:00:37.270Z,31.70
2018-06-03T09:01:37.252Z,29.60
2018-06-03T09:02:37.237Z,29.60
2018-06-03T09:03:37.221Z,30.90
2018-06-03T09:04:37.205Z,30.50
2018-06-03T09:05:37.190Z,29.20
2018-06-03T09:06:37.175Z,29.40
2018-06-03T09:07:37.158Z,28.60
2018-06-03T09:08:37.147Z,27.00
2018-06-03T09:09:37.130Z,28.30
2018-06-03T09:10:37.111Z,28.10
2018-06-03T09:11:37.103Z,27.70
2018-06-03T09:12:37.280Z,29.10
2018-06-03T09:13:39.683Z,30.10
2018-06-03T09:14:37.047Z,30.60
2018-06-03T09:15:37.229Z,29.80
2018-06-03T09:16:37.013Z,31.20
2018-06-03T09:17:36.993Z,32.20
2018-06-03T09:18:36.982Z,31.70
2018-06-03T09:19:36.970Z,33.30
2018-06-03T09:20:36.938Z,29.60
2018-06-03T09:21:36.922Z,29.30
2018-06-03T09:22:36.905Z,26.80
2018-06-03T09:23:36.886Z,30.90
2018-06-03T09:24:36.865Z,29.30
2018-06-03T09:25:36.848Z,27.40
2018-06-03T09:26:36.828Z,29.80
2018-06-03T09:27:36.808Z,31.60
2018-06-03T09:28:36.803Z,31.80
2018-06-03T09:29:36.774Z,30.60
2018-06-03T09:30:36.753Z,29.10
2018-06-03T09:31:36.741Z,28.40
2018-06-03T09:32:36.716Z,28.70
2018-06-03T09:33:36.698Z,30.10
2018-06-03T09:34:36.703Z,27.00
2018-06-03T09:35:36.658Z,30.80
2018-06-03T09:36:36.639Z,30.50
2018-06-03T09:37:36.646Z,30.80
2018-06-03T09:38:36.606Z,30.50
2018-06-03T09:39:36.587Z,29.00
2018-06-03T09:40:36.566Z,28.50
2018-06-03T09:41:36.548Z,27.10
2018-06-03T09:42:36.530Z,28.20
2018-06-03T09:43:36.510Z,27.10
2018-06-03T09:44:36.541Z,26.40
2018-06-03T09:45:36.480Z,28.00
2018-06-03T09:46:36.467Z,30.20
2018-06-03T09:47:36.442Z,26.50
2018-06-03T09:48:36.425Z,27.80
2018-06-03T09:49:36.408Z,26.20
2018-06-03T09:50:36.392Z,27.40
2018-06-03T09:51:36.374Z,25.60
2018-06-03T09:52:36.360Z,25.30
2018-06-03T09:53:36.341Z,24.90
2018-06-03T09:54:36.326Z,23.80
2018-06-03T09:55:36.309Z,23.50
2018-06-03T09:56:36.290Z,24.50
2018-06-03T09:57:36.274Z,24.00
2018-06-03T09:58:36.261Z,25.70
2018-06-03T09:59:36.249Z,26.80
2018-06-03T10:00:36.223Z,27.20
2018-06-03T10:01:36.206Z,26.70
2018-06-03T10:02:36.190Z,26.60
2018-06-03T10:03:36.172Z,26.30
2018-06-03T10:04:36.155Z,26.20
2018-06-03T10:05:36.144Z,26.30
2018-06-03T10:06:36.127Z,24.50
2018-06-03T10:07:36.104Z,25.50
2018-06-03T10:08:36.088Z,26.60
2018-06-03T10:09:36.074Z,26.80
2018-06-03T10:10:36.057Z,26.10
2018-06-03T10:11:36.252Z,25.50
2018-06-03T10:12:36.830Z,24.70
2018-06-03T10:13:36.004Z,25.30
2018-06-03T10:14:35.999Z,24.40
2018-06-03T10:15:35.974Z,24.90
2018-06-03T10:16:35.957Z,23.70
2018-06-03T10:17:35.941Z,22.60
2018-06-03T10:18:35.926Z,22.90
2018-06-03T10:19:35.909Z,22.50
2018-06-03T10:20:35.895Z,21.60
2018-06-03T10:21:35.877Z,22.20
2018-06-03T10:22:35.861Z,22.00
2018-06-03T10:23:35.853Z,22.50
2018-06-03T10:24:35.830Z,22.00
2018-06-03T10:25:35.813Z,18.80
2018-06-03T10:26:35.795Z,19.30
2018-06-03T10:27:35.779Z,18.20
2018-06-03T10:28:35.763Z,19.00
2018-06-03T10:29:35.747Z,21.50
2018-06-03T10:30:35.736Z,20.80
2018-06-03T10:31:35.713Z,20.20
2018-06-03T10:32:35.697Z,21.20
2018-06-03T10:33:35.691Z,21.00
2018-06-03T10:34:35.662Z,20.80
2018-06-03T10:35:35.646Z,21.10
2018-06-03T10:36:35.628Z,20.60
2018-06-03T10:37:35.611Z,22.20
2018-06-03T10:38:35.596Z,22.70
2018-06-03T10:39:35.779Z,24.00
2018-06-03T10:40:35.559Z,24.30
2018-06-03T10:41:35.542Z,23.30
2018-06-03T10:42:35.526Z,22.20
2018-06-03T10:43:35.507Z,20.60
2018-06-03T10:44:35.488Z,21.80
2018-06-03T10:45:35.475Z,20.40
2018-06-03T10:46:35.453Z,16.80
2018-06-03T10:47:35.433Z,16.00
2018-06-03T10:48:35.418Z,18.00
2018-06-03T10:49:35.449Z,17.50
2018-06-03T10:50:35.380Z,16.70
2018-06-03T10:51:35.361Z,17.80
2018-06-03T10:52:35.344Z,17.20
2018-06-03T10:53:35.325Z,16.70
2018-06-03T10:54:35.357Z,16.90
2018-06-03T10:55:35.289Z,18.50
2018-06-03T10:56:35.271Z,18.30
2018-06-03T10:57:35.253Z,18.10
2018-06-03T10:58:35.235Z,19.80
2018-06-03T10:59:35.216Z,19.40
2018-06-03T11:00:35.198Z,19.70
2018-06-03T11:01:35.180Z,21.10
2018-06-03T11:02:35.162Z,21.10
2018-06-03T11:03:35.150Z,21.00
2018-06-03T11:04:35.126Z,21.60
2018-06-03T11:05:35.125Z,19.90
2018-06-03T11:06:35.090Z,21.00
2018-06-03T11:07:35.071Z,19.30
2018-06-03T11:08:35.053Z,17.50
2018-06-03T11:09:35.039Z,18.90
2018-06-03T11:10:35.017Z,18.60
2018-06-03T11:11:34.998Z,20.00
2018-06-03T11:12:34.980Z,19.20
2018-06-03T11:13:34.962Z,19.50
2018-06-03T11:14:34.945Z,20.00
2018-06-03T11:15:34.925Z,19.50
2018-06-03T11:16:34.946Z,20.60
2018-06-03T11:17:34.889Z,21.20
2018-06-03T11:18:34.872Z,20.50
2018-06-03T11:19:34.858Z,19.80
2018-06-03T11:20:34.835Z,20.20
2018-06-03T11:21:34.816Z,19.20
2018-06-03T11:22:34.801Z,18.80
2018-06-03T11:23:34.781Z,18.80
2018-06-03T11:24:34.762Z,19.10
2018-06-03T11:25:34.747Z,19.30
2018-06-03T11:26:34.726Z,19.30
2018-06-03T11:27:34.753Z,18.00
2018-06-03T11:28:34.692Z,17.90
2018-06-03T11:29:34.674Z,15.70
2018-06-03T11:30:34.659Z,16.60
2018-06-03T11:31:34.639Z,15.90
2018-06-03T11:32:34.627Z,17.20
2018-06-03T11:33:34.605Z,17.10
2018-06-03T11:34:34.589Z,17.30
2018-06-03T11:35:34.572Z,16.10
2018-06-03T11:36:34.555Z,16.20
2018-06-03T11:37:34.538Z,15.90
2018-06-03T11:38:34.524Z,15.70
2018-06-03T11:39:34.507Z,16.30
2018-06-03T11:40:34.492Z,15.90
2018-06-03T11:41:34.479Z,15.50
2018-06-03T11:42:34.462Z,16.20
2018-06-03T11:43:34.446Z,15.10
2018-06-03T11:44:34.431Z,15.90
2018-06-03T11:45:34.417Z,15.90
2018-06-03T11:46:34.401Z,15.90
2018-06-03T11:47:34.587Z,16.40
2018-06-03T11:48:34.371Z,15.20
2018-06-03T11:49:34.356Z,16.10
2018-06-03T11:50:34.544Z,15.10
2018-06-03T11:56:29.640Z,16.10
2018-06-03T11:57:29.426Z,15.80
2018-06-03T11:58:29.408Z,15.80
2018-06-03T11:59:29.392Z,16.00
2018-06-03T12:00:29.380Z,16.00
2018-06-03T12:01:29.369Z,16.30
2018-06-03T12:02:29.346Z,16.70
2018-06-03T12:03:29.333Z,16.90
2018-06-03T12:04:29.316Z,17.60
2018-06-03T12:05:29.300Z,18.80
2018-06-03T12:06:29.289Z,18.70
2018-06-03T12:07:29.269Z,19.10
2018-06-03T12:08:29.254Z,19.20
2018-06-03T12:09:29.236Z,18.60
2018-06-03T12:10:29.221Z,18.40
2018-06-03T12:11:29.204Z,18.50
2018-06-03T12:12:29.391Z,19.30
2018-06-03T12:13:29.176Z,20.80
2018-06-03T12:14:29.155Z,19.90
2018-06-03T12:15:29.185Z,20.20
2018-06-03T12:16:29.332Z,20.40
2018-06-03T12:17:29.107Z,19.10
2018-06-03T12:18:29.093Z,19.70
2018-06-03T12:19:29.071Z,19.60
2018-06-03T12:20:29.055Z,20.50
2018-06-03T12:21:29.050Z,20.30
2018-06-03T12:22:29.021Z,21.00
2018-06-03T12:23:29.005Z,21.90
2018-06-03T12:24:29.189Z,22.60
2018-06-03T12:25:28.969Z,20.50
2018-06-03T12:26:28.953Z,20.10
2018-06-03T12:27:28.941Z,21.40
2018-06-03T12:28:28.967Z,21.70
2018-06-03T12:29:28.901Z,20.70
2018-06-03T12:30:28.889Z,21.10
2018-06-03T12:31:28.871Z,20.60
2018-06-03T12:32:28.851Z,20.90
2018-06-03T12:33:28.832Z,21.10
2018-06-03T12:34:28.816Z,20.30
2018-06-03T12:35:28.800Z,21.40
2018-06-03T12:36:28.783Z,20.20
2018-06-03T12:37:28.765Z,19.30
2018-06-03T12:38:28.751Z,21.40
2018-06-03T12:39:28.737Z,20.70
2018-06-03T12:40:28.716Z,22.30
2018-06-03T12:41:28.699Z,23.10
2018-06-03T12:42:28.682Z,21.90
2018-06-03T12:43:28.672Z,21.90
2018-06-03T12:44:28.649Z,22.00
2018-06-03T12:45:28.632Z,21.10
2018-06-03T12:46:28.616Z,21.00
2018-06-03T12:47:28.600Z,20.90
2018-06-03T12:48:28.595Z,20.60
2018-06-03T12:49:28.567Z,20.00
2018-06-03T12:50:28.552Z,20.30
2018-06-03T12:51:28.536Z,19.10
2018-06-03T12:52:28.522Z,20.30
2018-06-03T12:53:28.503Z,21.20
2018-06-03T12:54:28.487Z,21.30
2018-06-03T12:55:28.472Z,19.10
2018-06-03T12:56:28.457Z,18.50
2018-06-03T12:57:28.439Z,18.40
2018-06-03T12:58:28.427Z,18.70